sensor_id;sensor_type;location;lat;lon;timestamp;pressure;altitude;pressure_sealevel;temperature;humidity
5284;BME280;15377;48.540;9.268;2023-04-25T00:01:20;96821.34;;;6.40;100.00
5284;BME280;15377;48.540;9.268;2023-04-25T00:03:47;96846.66;;;6.58;100.00
5284;BME280;15377;48.540;9.268;2023-04-25T00:06:12;96847.72;;;6.61;100.00
5284;BME280;15377;48.540;9.268;2023-04-25T00:08:38;96842.72;;;6.50;100.00
5284;BME280;15377;48.540;9.268;2023-04-25T00:11:04;96847.47;;;6.50;100.00
5284;BME280;15377;48.540;9.268;2023-04-25T00:13:29;96850.50;;;6.43;100.00
5284;BME280;15377;48.540;9.268;2023-04-25T00:15:54;96850.34;;;6.37;100.00
5284;BME280;15377;48.540;9.268;2023-04-25T00:18:21;96855.78;;;6.37;100.00
5284;BME280;15377;48.540;9.268;2023-04-25T00:20:47;96845.94;;;6.31;100.00
5284;BME280;15377;48.540;9.268;2023-04-25T00:23:13;96868.44;;;6.35;100.00
5284;BME280;15377;48.540;9.268;2023-04-25T00:25:44;96861.13;;;6.41;100.00
5284;BME280;15377;48.540;9.268;2023-04-25T00:28:10;96866.13;;;6.51;100.00
5284;BME280;15377;48.540;9.268;2023-04-25T00:30:35;96840.44;;;6.49;100.00
5284;BME280;15377;48.540;9.268;2023-04-25T00:33:01;96844.41;;;6.48;100.00
5284;BME280;15377;48.540;9.268;2023-04-25T00:35:26;96848.66;;;6.58;100.00
5284;BME280;15377;48.540;9.268;2023-04-25T00:37:51;96842.84;;;6.65;100.00
5284;BME280;15377;48.540;9.268;2023-04-25T00:40:17;96839.19;;;6.77;100.00
5284;BME280;15377;48.540;9.268;2023-04-25T00:42:42;96833.38;;;6.93;100.00
5284;BME280;15377;48.540;9.268;2023-04-25T00:45:12;96838.22;;;6.98;100.00
5284;BME280;15377;48.540;9.268;2023-04-25T00:47:39;96832.88;;;7.03;100.00
5284;BME280;15377;48.540;9.268;2023-04-25T00:50:06;96836.34;;;7.03;100.00
5284;BME280;15377;48.540;9.268;2023-04-25T00:52:31;96833.94;;;7.06;100.00
5284;BME280;15377;48.540;9.268;2023-04-25T00:54:57;96826.19;;;7.04;100.00
5284;BME280;15377;48.540;9.268;2023-04-25T00:57:22;96827.38;;;7.12;100.00
5284;BME280;15377;48.540;9.268;2023-04-25T00:59:47;96822.31;;;7.19;100.00
5284;BME280;15377;48.540;9.268;2023-04-25T01:02:15;96825.34;;;7.21;100.00
5284;BME280;15377;48.540;9.268;2023-04-25T01:04:41;96810.56;;;7.28;100.00
5284;BME280;15377;48.540;9.268;2023-04-25T01:07:06;96830.44;;;7.37;100.00
5284;BME280;15377;48.540;9.268;2023-04-25T01:09:32;96820.56;;;7.40;100.00
5284;BME280;15377;48.540;9.268;2023-04-25T01:11:57;96823.88;;;7.44;100.00
5284;BME280;15377;48.540;9.268;2023-04-25T01:14:23;96824.28;;;7.51;100.00
5284;BME280;15377;48.540;9.268;2023-04-25T01:16:48;96817.41;;;7.56;100.00
5284;BME280;15377;48.540;9.268;2023-04-25T01:19:16;96812.41;;;7.54;100.00
5284;BME280;15377;48.540;9.268;2023-04-25T01:21:41;96818.81;;;7.51;100.00
5284;BME280;15377;48.540;9.268;2023-04-25T01:24:07;96813.34;;;7.51;100.00
5284;BME280;15377;48.540;9.268;2023-04-25T01:26:33;96814.38;;;7.54;100.00
5284;BME280;15377;48.540;9.268;2023-04-25T01:28:59;96804.81;;;7.49;100.00
5284;BME280;15377;48.540;9.268;2023-04-25T01:31:25;96796.44;;;7.53;100.00
5284;BME280;15377;48.540;9.268;2023-04-25T01:33:51;96802.97;;;7.55;100.00
5284;BME280;15377;48.540;9.268;2023-04-25T01:36:17;96803.03;;;7.46;100.00
5284;BME280;15377;48.540;9.268;2023-04-25T01:38:43;96800.56;;;7.48;100.00
5284;BME280;15377;48.540;9.268;2023-04-25T01:41:09;96796.94;;;7.42;100.00
5284;BME280;15377;48.540;9.268;2023-04-25T01:43:35;96802.44;;;7.42;100.00
5284;BME280;15377;48.540;9.268;2023-04-25T01:46:01;96799.41;;;7.40;100.00
5284;BME280;15377;48.540;9.268;2023-04-25T01:48:26;96806.38;;;7.41;100.00
5284;BME280;15377;48.540;9.268;2023-04-25T01:50:51;96806.38;;;7.41;100.00
5284;BME280;15377;48.540;9.268;2023-04-25T01:53:17;96807.03;;;7.36;100.00
5284;BME280;15377;48.540;9.268;2023-04-25T01:55:42;96812.50;;;7.36;100.00
5284;BME280;15377;48.540;9.268;2023-04-25T01:58:08;96811.78;;;7.27;100.00
5284;BME280;15377;48.540;9.268;2023-04-25T02:00:35;96814.06;;;7.28;100.00
5284;BME280;15377;48.540;9.268;2023-04-25T02:03:03;96807.06;;;7.27;100.00
5284;BME280;15377;48.540;9.268;2023-04-25T02:05:34;96812.53;;;7.27;100.00
5284;BME280;15377;48.540;9.268;2023-04-25T02:07:59;96797.81;;;7.25;100.00
5284;BME280;15377;48.540;9.268;2023-04-25T02:10:24;96797.66;;;7.28;100.00
5284;BME280;15377;48.540;9.268;2023-04-25T02:12:50;96795.53;;;7.23;100.00
5284;BME280;15377;48.540;9.268;2023-04-25T02:15:15;96807.06;;;7.27;100.00
5284;BME280;15377;48.540;9.268;2023-04-25T02:17:40;96798.41;;;7.29;100.00
5284;BME280;15377;48.540;9.268;2023-04-25T02:20:06;96803.13;;;7.28;100.00
5284;BME280;15377;48.540;9.268;2023-04-25T02:22:32;96800.84;;;7.27;100.00
5284;BME280;15377;48.540;9.268;2023-04-25T02:24:59;96790.75;;;7.09;100.00
5284;BME280;15377;48.540;9.268;2023-04-25T02:27:24;96797.91;;;7.07;100.00
5284;BME280;15377;48.540;9.268;2023-04-25T02:29:49;96802.91;;;7.08;100.00
5284;BME280;15377;48.540;9.268;2023-04-25T02:32:15;96796.38;;;7.06;100.00
5284;BME280;15377;48.540;9.268;2023-04-25T02:34:40;96807.75;;;7.13;100.00
5284;BME280;15377;48.540;9.268;2023-04-25T02:37:06;96793.16;;;7.16;100.00
5284;BME280;15377;48.540;9.268;2023-04-25T02:39:31;96788.63;;;7.13;100.00
5284;BME280;15377;48.540;9.268;2023-04-25T02:41:56;96801.97;;;7.20;100.00
5284;BME280;15377;48.540;9.268;2023-04-25T02:44:22;96784.00;;;7.19;100.00
5284;BME280;15377;48.540;9.268;2023-04-25T02:46:47;96784.00;;;7.19;100.00
5284;BME280;15377;48.540;9.268;2023-04-25T02:49:12;96784.00;;;7.19;100.00
5284;BME280;15377;48.540;9.268;2023-04-25T02:51:38;96788.28;;;7.11;100.00
5284;BME280;15377;48.540;9.268;2023-04-25T02:54:03;96789.69;;;7.07;100.00
5284;BME280;15377;48.540;9.268;2023-04-25T02:56:28;96783.53;;;6.98;100.00
5284;BME280;15377;48.540;9.268;2023-04-25T02:58:54;96784.75;;;6.97;100.00
5284;BME280;15377;48.540;9.268;2023-04-25T03:01:19;96782.16;;;6.93;100.00
5284;BME280;15377;48.540;9.268;2023-04-25T03:03:45;96773.81;;;6.88;100.00
5284;BME280;15377;48.540;9.268;2023-04-25T03:06:13;96777.59;;;6.90;100.00
5284;BME280;15377;48.540;9.268;2023-04-25T03:08:39;96780.81;;;6.89;100.00
5284;BME280;15377;48.540;9.268;2023-04-25T03:11:04;96769.53;;;6.96;100.00
5284;BME280;15377;48.540;9.268;2023-04-25T03:13:29;96770.63;;;6.89;100.00
5284;BME280;15377;48.540;9.268;2023-04-25T03:15:55;96763.47;;;6.92;100.00
5284;BME280;15377;48.540;9.268;2023-04-25T03:18:20;96761.69;;;6.89;100.00
5284;BME280;15377;48.540;9.268;2023-04-25T03:20:46;96760.63;;;6.86;100.00
5284;BME280;15377;48.540;9.268;2023-04-25T03:23:11;96769.00;;;6.83;100.00
5284;BME280;15377;48.540;9.268;2023-04-25T03:25:37;96768.72;;;6.81;100.00
5284;BME280;15377;48.540;9.268;2023-04-25T03:28:02;96768.72;;;6.81;100.00
5284;BME280;15377;48.540;9.268;2023-04-25T03:30:27;96755.38;;;6.65;100.00
5284;BME280;15377;48.540;9.268;2023-04-25T03:32:53;96760.53;;;6.63;100.00
5284;BME280;15377;48.540;9.268;2023-04-25T03:35:18;96760.25;;;6.61;100.00
5284;BME280;15377;48.540;9.268;2023-04-25T03:37:44;96765.41;;;6.68;100.00
5284;BME280;15377;48.540;9.268;2023-04-25T03:40:12;96758.72;;;6.69;100.00
5284;BME280;15377;48.540;9.268;2023-04-25T03:42:37;96753.56;;;6.62;100.00
5284;BME280;15377;48.540;9.268;2023-04-25T03:45:03;96748.88;;;6.62;100.00
5284;BME280;15377;48.540;9.268;2023-04-25T03:47:28;96752.69;;;6.56;100.00
5284;BME280;15377;48.540;9.268;2023-04-25T03:49:54;96748.47;;;6.46;100.00
5284;BME280;15377;48.540;9.268;2023-04-25T03:52:19;96761.81;;;6.53;100.00
5284;BME280;15377;48.540;9.268;2023-04-25T03:54:45;96746.63;;;6.52;100.00
5284;BME280;15377;48.540;9.268;2023-04-25T03:57:10;96751.78;;;6.59;100.00
5284;BME280;15377;48.540;9.268;2023-04-25T03:59:36;96740.06;;;6.58;100.00
5284;BME280;15377;48.540;9.268;2023-04-25T04:02:01;96748.72;;;6.57;100.00
5284;BME280;15377;48.540;9.268;2023-04-25T04:04:26;96757.41;;;6.55;100.00
5284;BME280;15377;48.540;9.268;2023-04-25T04:06:52;96752.41;;;6.45;100.00
5284;BME280;15377;48.540;9.268;2023-04-25T04:09:17;96756.69;;;6.37;100.00
5284;BME280;15377;48.540;9.268;2023-04-25T04:11:43;96754.84;;;6.43;100.00
5284;BME280;15377;48.540;9.268;2023-04-25T04:14:08;96752.72;;;6.38;100.00
5284;BME280;15377;48.540;9.268;2023-04-25T04:16:35;96759.84;;;6.44;100.00
5284;BME280;15377;48.540;9.268;2023-04-25T04:19:00;96751.97;;;6.37;100.00
5284;BME280;15377;48.540;9.268;2023-04-25T04:21:26;96752.16;;;6.34;100.00
5284;BME280;15377;48.540;9.268;2023-04-25T04:23:52;96737.28;;;6.26;100.00
5284;BME280;15377;48.540;9.268;2023-04-25T04:26:17;96749.88;;;6.32;100.00
5284;BME280;15377;48.540;9.268;2023-04-25T04:28:43;96746.06;;;6.30;100.00
5284;BME280;15377;48.540;9.268;2023-04-25T04:31:10;96752.16;;;6.25;100.00
5284;BME280;15377;48.540;9.268;2023-04-25T04:33:35;96760.97;;;6.20;100.00
5284;BME280;15377;48.540;9.268;2023-04-25T04:36:02;96741.88;;;6.02;100.00
5284;BME280;15377;48.540;9.268;2023-04-25T04:38:28;96760.78;;;6.32;100.00
5284;BME280;15377;48.540;9.268;2023-04-25T04:40:54;96752.72;;;6.38;100.00
5284;BME280;15377;48.540;9.268;2023-04-25T04:43:19;96745.59;;;6.40;100.00
5284;BME280;15377;48.540;9.268;2023-04-25T04:45:44;96735.41;;;6.41;100.00
5284;BME280;15377;48.540;9.268;2023-04-25T04:48:10;96750.88;;;6.53;100.00
5284;BME280;15377;48.540;9.268;2023-04-25T04:50:36;96763.88;;;6.67;100.00
5284;BME280;15377;48.540;9.268;2023-04-25T04:53:02;96765.53;;;6.73;100.00
5284;BME280;15377;48.540;9.268;2023-04-25T04:55:27;96765.38;;;6.77;100.00
5284;BME280;15377;48.540;9.268;2023-04-25T04:57:53;96766.59;;;6.76;100.00
5284;BME280;15377;48.540;9.268;2023-04-25T05:00:18;96762.06;;;6.73;100.00
5284;BME280;15377;48.540;9.268;2023-04-25T05:02:45;96772.63;;;6.80;100.00
5284;BME280;15377;48.540;9.268;2023-04-25T05:05:11;96765.66;;;6.79;100.00
5284;BME280;15377;48.540;9.268;2023-04-25T05:07:36;96780.06;;;6.88;100.00
5284;BME280;15377;48.540;9.268;2023-04-25T05:10:02;96776.53;;;6.97;100.00
5284;BME280;15377;48.540;9.268;2023-04-25T05:12:27;96778.56;;;7.10;100.00
5284;BME280;15377;48.540;9.268;2023-04-25T05:14:53;96774.34;;;7.09;100.00
5284;BME280;15377;48.540;9.268;2023-04-25T05:17:18;96772.06;;;7.08;100.00
5284;BME280;15377;48.540;9.268;2023-04-25T05:19:43;96778.56;;;7.10;100.00
5284;BME280;15377;48.540;9.268;2023-04-25T05:22:09;96787.72;;;7.07;100.00
5284;BME280;15377;48.540;9.268;2023-04-25T05:24:34;96788.00;;;7.09;100.00
5284;BME280;15377;48.540;9.268;2023-04-25T05:27:00;96776.78;;;7.07;100.00
5284;BME280;15377;48.540;9.268;2023-04-25T05:29:25;96795.88;;;7.16;100.00
5284;BME280;15377;48.540;9.268;2023-04-25T05:31:50;96783.75;;;7.08;100.00
5284;BME280;15377;48.540;9.268;2023-04-25T05:34:16;96793.78;;;7.11;100.00
5284;BME280;15377;48.540;9.268;2023-04-25T05:36:41;96789.84;;;7.13;100.00
5284;BME280;15377;48.540;9.268;2023-04-25T05:39:07;96787.63;;;7.25;100.00
5284;BME280;15377;48.540;9.268;2023-04-25T05:41:33;96786.13;;;7.24;100.00
5284;BME280;15377;48.540;9.268;2023-04-25T05:43:59;96788.16;;;7.38;100.00
5284;BME280;15377;48.540;9.268;2023-04-25T05:46:24;96785.38;;;7.47;100.00
5284;BME280;15377;48.540;9.268;2023-04-25T05:48:50;96782.28;;;7.54;100.00
5284;BME280;15377;48.540;9.268;2023-04-25T05:51:15;96777.19;;;7.62;100.00
5284;BME280;15377;48.540;9.268;2023-04-25T05:53:41;96784.44;;;7.74;100.00
5284;BME280;15377;48.540;9.268;2023-04-25T05:56:06;96789.38;;;7.84;100.00
5284;BME280;15377;48.540;9.268;2023-04-25T05:58:32;96774.66;;;7.96;100.00
5284;BME280;15377;48.540;9.268;2023-04-25T06:00:57;96787.91;;;8.12;100.00
5284;BME280;15377;48.540;9.268;2023-04-25T06:03:23;96775.44;;;8.11;100.00
5284;BME280;15377;48.540;9.268;2023-04-25T06:05:48;96773.69;;;8.23;100.00
5284;BME280;15377;48.540;9.268;2023-04-25T06:08:14;96781.66;;;8.35;100.00
5284;BME280;15377;48.540;9.268;2023-04-25T06:10:39;96786.09;;;8.47;100.00
5284;BME280;15377;48.540;9.268;2023-04-25T06:13:05;96791.13;;;8.63;100.00
5284;BME280;15377;48.540;9.268;2023-04-25T06:15:31;96785.69;;;8.83;100.00
5284;BME280;15377;48.540;9.268;2023-04-25T06:17:57;96776.16;;;8.93;100.00
5284;BME280;15377;48.540;9.268;2023-04-25T06:20:23;96780.84;;;9.07;100.00
5284;BME280;15377;48.540;9.268;2023-04-25T06:22:50;96785.66;;;9.12;100.00
5284;BME280;15377;48.540;9.268;2023-04-25T06:25:16;96792.66;;;9.13;100.00
5284;BME280;15377;48.540;9.268;2023-04-25T06:27:42;96795.88;;;9.12;100.00
5284;BME280;15377;48.540;9.268;2023-04-25T06:30:07;96802.63;;;8.96;100.00
5284;BME280;15377;48.540;9.268;2023-04-25T06:32:33;96810.22;;;8.72;100.00
5284;BME280;15377;48.540;9.268;2023-04-25T06:35:00;96802.00;;;8.72;100.00
5284;BME280;15377;48.540;9.268;2023-04-25T06:37:25;96809.38;;;8.66;100.00
5284;BME280;15377;48.540;9.268;2023-04-25T06:39:51;96802.94;;;8.69;100.00
5284;BME280;15377;48.540;9.268;2023-04-25T06:42:16;96803.13;;;8.80;100.00
5284;BME280;15377;48.540;9.268;2023-04-25T06:44:41;96802.53;;;8.76;100.00
5284;BME280;15377;48.540;9.268;2023-04-25T06:47:07;96803.88;;;8.81;100.00
5284;BME280;15377;48.540;9.268;2023-04-25T06:49:32;96800.09;;;8.78;100.00
5284;BME280;15377;48.540;9.268;2023-04-25T06:51:57;96802.16;;;8.83;100.00
5284;BME280;15377;48.540;9.268;2023-04-25T06:54:23;96804.34;;;8.79;100.00
5284;BME280;15377;48.540;9.268;2023-04-25T06:56:50;96798.78;;;8.74;100.00
5284;BME280;15377;48.540;9.268;2023-04-25T06:59:15;96799.16;;;8.81;100.00
5284;BME280;15377;48.540;9.268;2023-04-25T07:01:40;96803.13;;;8.80;100.00
5284;BME280;15377;48.540;9.268;2023-04-25T07:04:06;96803.66;;;8.84;100.00
5284;BME280;15377;48.540;9.268;2023-04-25T07:06:31;96807.97;;;8.85;100.00
5284;BME280;15377;48.540;9.268;2023-04-25T07:08:57;96804.25;;;8.88;100.00
5284;BME280;15377;48.540;9.268;2023-04-25T07:11:22;96808.41;;;8.84;100.00
5284;BME280;15377;48.540;9.268;2023-04-25T07:13:47;96812.94;;;8.87;100.00
5284;BME280;15377;48.540;9.268;2023-04-25T07:16:13;96802.53;;;8.76;100.00
5284;BME280;15377;48.540;9.268;2023-04-25T07:18:38;96827.72;;;8.89;100.00
5284;BME280;15377;48.540;9.268;2023-04-25T07:21:03;96818.25;;;8.90;100.00
5284;BME280;15377;48.540;9.268;2023-04-25T07:23:29;96809.75;;;8.88;100.00
5284;BME280;15377;48.540;9.268;2023-04-25T07:25:55;96816.66;;;8.84;100.00
5284;BME280;15377;48.540;9.268;2023-04-25T07:28:21;96814.09;;;8.80;100.00
5284;BME280;15377;48.540;9.268;2023-04-25T07:30:47;96819.09;;;8.67;100.00
5284;BME280;15377;48.540;9.268;2023-04-25T07:33:12;96820.91;;;8.70;100.00
5284;BME280;15377;48.540;9.268;2023-04-25T07:35:37;96814.47;;;8.73;100.00
5284;BME280;15377;48.540;9.268;2023-04-25T07:38:03;96815.59;;;8.81;100.00
5284;BME280;15377;48.540;9.268;2023-04-25T07:40:28;96804.81;;;8.92;100.00
5284;BME280;15377;48.540;9.268;2023-04-25T07:42:54;96819.56;;;9.09;100.00
5284;BME280;15377;48.540;9.268;2023-04-25T07:45:19;96828.06;;;9.11;100.00
5284;BME280;15377;48.540;9.268;2023-04-25T07:47:45;96830.34;;;9.13;100.00
5284;BME280;15377;48.540;9.268;2023-04-25T07:50:10;96833.38;;;9.00;100.00
5284;BME280;15377;48.540;9.268;2023-04-25T07:52:36;96836.72;;;8.90;100.00
5284;BME280;15377;48.540;9.268;2023-04-25T07:55:01;96841.44;;;8.89;100.00
5284;BME280;15377;48.540;9.268;2023-04-25T07:57:27;96839.25;;;8.79;100.00
5284;BME280;15377;48.540;9.268;2023-04-25T07:59:52;96842.47;;;8.77;100.00
5284;BME280;15377;48.540;9.268;2023-04-25T08:02:17;96847.28;;;8.82;100.00
5284;BME280;15377;48.540;9.268;2023-04-25T08:04:43;96856.25;;;8.68;100.00
5284;BME280;15377;48.540;9.268;2023-04-25T08:07:08;96852.09;;;8.58;100.00
5284;BME280;15377;48.540;9.268;2023-04-25T08:09:33;96856.16;;;8.48;100.00
5284;BME280;15377;48.540;9.268;2023-04-25T08:12:00;96863.88;;;8.35;100.00
5284;BME280;15377;48.540;9.268;2023-04-25T08:14:26;96850.09;;;8.06;100.00
5284;BME280;15377;48.540;9.268;2023-04-25T08:16:52;96860.81;;;7.95;100.00
5284;BME280;15377;48.540;9.268;2023-04-25T08:19:17;96863.03;;;7.82;100.00
5284;BME280;15377;48.540;9.268;2023-04-25T08:21:43;96864.91;;;7.76;100.00
5284;BME280;15377;48.540;9.268;2023-04-25T08:24:08;96865.25;;;7.69;100.00
5284;BME280;15377;48.540;9.268;2023-04-25T08:26:33;96868.66;;;7.55;100.00
5284;BME280;15377;48.540;9.268;2023-04-25T08:28:59;96872.34;;;7.52;100.00
5284;BME280;15377;48.540;9.268;2023-04-25T08:31:25;96876.53;;;7.62;100.00
5284;BME280;15377;48.540;9.268;2023-04-25T08:33:50;96883.88;;;7.56;100.00
5284;BME280;15377;48.540;9.268;2023-04-25T08:36:17;96886.72;;;7.62;100.00
5284;BME280;15377;48.540;9.268;2023-04-25T08:38:42;96890.56;;;7.55;100.00
5284;BME280;15377;48.540;9.268;2023-04-25T08:41:08;96897.56;;;7.56;100.00
5284;BME280;15377;48.540;9.268;2023-04-25T08:43:36;96891.03;;;7.54;100.00
5284;BME280;15377;48.540;9.268;2023-04-25T08:46:02;96900.94;;;7.51;100.00
5284;BME280;15377;48.540;9.268;2023-04-25T08:48:30;96908.00;;;7.34;100.00
5284;BME280;15377;48.540;9.268;2023-04-25T08:50:57;96907.41;;;7.30;100.00
5284;BME280;15377;48.540;9.268;2023-04-25T08:53:28;96917.56;;;7.39;100.00
5284;BME280;15377;48.540;9.268;2023-04-25T08:55:55;96918.66;;;7.32;100.00
5284;BME280;15377;48.540;9.268;2023-04-25T08:58:21;96935.41;;;7.25;100.00
5284;BME280;15377;48.540;9.268;2023-04-25T09:00:48;96929.63;;;7.23;100.00
5284;BME280;15377;48.540;9.268;2023-04-25T09:03:14;96929.19;;;7.25;100.00
5284;BME280;15377;48.540;9.268;2023-04-25T09:05:40;96931.28;;;7.30;100.00
5284;BME280;15377;48.540;9.268;2023-04-25T09:08:06;96940.47;;;7.50;100.00
5284;BME280;15377;48.540;9.268;2023-04-25T09:10:32;96935.00;;;7.50;100.00
5284;BME280;15377;48.540;9.268;2023-04-25T09:13:06;96944.44;;;7.49;100.00
5284;BME280;15377;48.540;9.268;2023-04-25T09:15:32;96952.78;;;7.55;100.00
5284;BME280;15377;48.540;9.268;2023-04-25T09:17:59;96950.50;;;7.53;100.00
5284;BME280;15377;48.540;9.268;2023-04-25T09:20:25;96954.88;;;7.60;100.00
5284;BME280;15377;48.540;9.268;2023-04-25T09:23:18;96957.75;;;7.65;100.00
5284;BME280;15377;48.540;9.268;2023-04-25T09:25:47;96961.72;;;7.64;100.00
5284;BME280;15377;48.540;9.268;2023-04-25T09:28:13;96969.63;;;7.62;100.00
5284;BME280;15377;48.540;9.268;2023-04-25T09:30:38;96960.31;;;7.69;100.00
5284;BME280;15377;48.540;9.268;2023-04-25T09:33:05;96969.56;;;7.80;100.00
5284;BME280;15377;48.540;9.268;2023-04-25T09:35:44;96975.63;;;7.84;100.00
5284;BME280;15377;48.540;9.268;2023-04-25T09:38:12;96972.00;;;7.78;100.00
5284;BME280;15377;48.540;9.268;2023-04-25T09:43:25;96989.97;;;7.79;100.00
5284;BME280;15377;48.540;9.268;2023-04-25T09:45:54;96989.53;;;7.72;100.00
5284;BME280;15377;48.540;9.268;2023-04-25T09:48:25;96999.75;;;7.62;100.00
5284;BME280;15377;48.540;9.268;2023-04-25T09:51:03;97007.59;;;7.37;100.00
5284;BME280;15377;48.540;9.268;2023-04-25T09:53:29;97009.72;;;7.42;100.00
5284;BME280;15377;48.540;9.268;2023-04-25T09:55:55;97005.91;;;7.39;100.00
5284;BME280;15377;48.540;9.268;2023-04-25T09:58:23;97009.09;;;7.38;100.00
5284;BME280;15377;48.540;9.268;2023-04-25T10:00:50;97011.75;;;7.14;100.00
5284;BME280;15377;48.540;9.268;2023-04-25T10:03:17;97015.38;;;7.20;100.00
5284;BME280;15377;48.540;9.268;2023-04-25T10:05:43;96996.22;;;7.11;100.00
5284;BME280;15377;48.540;9.268;2023-04-25T10:08:08;97016.75;;;7.16;100.00
5284;BME280;15377;48.540;9.268;2023-04-25T10:10:35;97014.78;;;7.16;100.00
5284;BME280;15377;48.540;9.268;2023-04-25T10:13:04;97015.38;;;7.20;100.00
5284;BME280;15377;48.540;9.268;2023-04-25T10:15:34;97012.31;;;7.18;100.00
5284;BME280;15377;48.540;9.268;2023-04-25T10:18:01;97019.94;;;7.23;100.00
5284;BME280;15377;48.540;9.268;2023-04-25T10:20:27;97016.59;;;7.10;100.00
5284;BME280;15377;48.540;9.268;2023-04-25T10:22:54;97025.44;;;7.06;100.00
5284;BME280;15377;48.540;9.268;2023-04-25T10:25:22;97024.97;;;6.98;100.00
5284;BME280;15377;48.540;9.268;2023-04-25T10:27:51;97018.28;;;6.72;100.00
5284;BME280;15377;48.540;9.268;2023-04-25T10:30:17;97019.06;;;6.73;100.00
5284;BME280;15377;48.540;9.268;2023-04-25T10:32:44;97033.94;;;6.72;100.00
5284;BME280;15377;48.540;9.268;2023-04-25T10:35:12;97036.66;;;6.72;100.00
5284;BME280;15377;48.540;9.268;2023-04-25T10:37:38;97035.91;;;6.62;100.00
5284;BME280;15377;48.540;9.268;2023-04-25T10:40:10;97033.00;;;6.57;100.00
5284;BME280;15377;48.540;9.268;2023-04-25T10:42:36;97046.94;;;6.41;100.00
5284;BME280;15377;48.540;9.268;2023-04-25T10:45:04;97050.91;;;6.49;100.00
5284;BME280;15377;48.540;9.268;2023-04-25T10:47:36;97058.81;;;6.47;100.00
5284;BME280;15377;48.540;9.268;2023-04-25T10:50:08;97054.22;;;6.35;100.00
5284;BME280;15377;48.540;9.268;2023-04-25T10:52:34;97043.88;;;6.30;100.00
5284;BME280;15377;48.540;9.268;2023-04-25T10:55:02;97058.91;;;6.25;100.00
5284;BME280;15377;48.540;9.268;2023-04-25T10:57:42;97063.84;;;6.09;100.00
5284;BME280;15377;48.540;9.268;2023-04-25T11:02:52;97068.91;;;6.19;100.00
5284;BME280;15377;48.540;9.268;2023-04-25T11:07:50;97083.22;;;6.32;100.00
5284;BME280;15377;48.540;9.268;2023-04-25T11:10:17;97079.28;;;6.33;100.00
5284;BME280;15377;48.540;9.268;2023-04-25T11:12:42;97078.84;;;6.35;100.00
5284;BME280;15377;48.540;9.268;2023-04-25T11:15:08;97086.13;;;6.38;100.00
5284;BME280;15377;48.540;9.268;2023-04-25T11:17:34;97085.38;;;6.46;100.00
5284;BME280;15377;48.540;9.268;2023-04-25T11:20:00;97090.59;;;6.62;100.00
5284;BME280;15377;48.540;9.268;2023-04-25T11:22:29;97098.16;;;6.67;100.00
5284;BME280;15377;48.540;9.268;2023-04-25T11:24:55;97086.44;;;6.49;100.00
5284;BME280;15377;48.540;9.268;2023-04-25T11:27:20;97076.72;;;6.57;100.00
5284;BME280;15377;48.540;9.268;2023-04-25T11:29:46;97109.31;;;6.91;100.00
5284;BME280;15377;48.540;9.268;2023-04-25T11:32:15;97112.97;;;7.06;100.00
5284;BME280;15377;48.540;9.268;2023-04-25T11:34:43;97115.41;;;7.30;100.00
5284;BME280;15377;48.540;9.268;2023-04-25T11:37:09;97104.91;;;7.38;100.00
5284;BME280;15377;48.540;9.268;2023-04-25T11:39:37;97108.69;;;7.67;100.00
5284;BME280;15377;48.540;9.268;2023-04-25T11:42:04;97108.09;;;7.45;100.00
5284;BME280;15377;48.540;9.268;2023-04-25T11:44:31;97104.28;;;7.52;100.00
5284;BME280;15377;48.540;9.268;2023-04-25T11:46:56;97102.59;;;7.63;100.00
5284;BME280;15377;48.540;9.268;2023-04-25T11:49:21;97105.75;;;7.80;100.00
5284;BME280;15377;48.540;9.268;2023-04-25T11:51:47;97114.34;;;8.05;100.00
5284;BME280;15377;48.540;9.268;2023-04-25T11:54:13;97121.03;;;8.13;100.00
5284;BME280;15377;48.540;9.268;2023-04-25T11:56:43;97126.53;;;8.04;100.00
5284;BME280;15377;48.540;9.268;2023-04-25T11:59:09;97121.22;;;8.19;100.00
5284;BME280;15377;48.540;9.268;2023-04-25T12:01:37;97123.41;;;8.38;100.00
5284;BME280;15377;48.540;9.268;2023-04-25T12:06:42;97126.00;;;8.65;100.00
5284;BME280;15377;48.540;9.268;2023-04-25T12:09:10;97132.69;;;8.73;100.00
5284;BME280;15377;48.540;9.268;2023-04-25T12:11:46;97140.72;;;8.77;100.00
5284;BME280;15377;48.540;9.268;2023-04-25T12:14:21;97139.44;;;8.63;100.00
5284;BME280;15377;48.540;9.268;2023-04-25T12:16:48;97146.78;;;8.57;100.00
5284;BME280;15377;48.540;9.268;2023-04-25T12:19:15;97145.34;;;8.38;100.00
5284;BME280;15377;48.540;9.268;2023-04-25T12:21:41;97149.34;;;8.19;100.00
5284;BME280;15377;48.540;9.268;2023-04-25T12:24:10;97152.38;;;8.12;100.00
5284;BME280;15377;48.540;9.268;2023-04-25T12:27:00;97158.56;;;7.71;100.00
5284;BME280;15377;48.540;9.268;2023-04-25T12:29:28;97152.81;;;7.60;100.00
5284;BME280;15377;48.540;9.268;2023-04-25T12:31:55;97158.28;;;7.51;100.00
5284;BME280;15377;48.540;9.268;2023-04-25T12:34:21;97137.59;;;7.50;100.00
5284;BME280;15377;48.540;9.268;2023-04-25T12:36:47;97148.22;;;7.75;100.00
5284;BME280;15377;48.540;9.268;2023-04-25T12:39:21;97154.31;;;7.70;100.00
5284;BME280;15377;48.540;9.268;2023-04-25T12:41:47;97156.44;;;7.66;100.00
5284;BME280;15377;48.540;9.268;2023-04-25T12:44:13;97165.53;;;7.90;100.00
5284;BME280;15377;48.540;9.268;2023-04-25T12:46:39;97166.91;;;7.95;100.00
5284;BME280;15377;48.540;9.268;2023-04-25T12:49:05;97168.53;;;8.10;100.00
5284;BME280;15377;48.540;9.268;2023-04-25T12:51:32;97165.50;;;8.08;100.00
5284;BME280;15377;48.540;9.268;2023-04-25T12:53:58;97172.50;;;8.09;100.00
5284;BME280;15377;48.540;9.268;2023-04-25T12:56:24;97179.63;;;8.25;100.00
5284;BME280;15377;48.540;9.268;2023-04-25T12:58:50;97174.84;;;8.43;100.00
5284;BME280;15377;48.540;9.268;2023-04-25T13:01:15;97175.09;;;8.63;100.00
5284;BME280;15377;48.540;9.268;2023-04-25T13:03:41;97165.50;;;8.91;100.00
5284;BME280;15377;48.540;9.268;2023-04-25T13:06:07;97169.25;;;9.26;100.00
5284;BME280;15377;48.540;9.268;2023-04-25T13:08:32;97181.25;;;9.52;100.00
5284;BME280;15377;48.540;9.268;2023-04-25T13:10:58;97170.47;;;9.63;100.00
5284;BME280;15377;48.540;9.268;2023-04-25T13:13:23;97179.00;;;9.65;100.00
5284;BME280;15377;48.540;9.268;2023-04-25T13:15:48;97168.16;;;9.47;100.00